Time;durP1;ratioP1;P1;durP2;ratioP2;P2;SDS_P1;SDS_P2;PMS_P1;PMS_P2;Temp;Humidity;BMP_temperature;BMP_pressure;BME280_temperature;BME280_humidity;BME280_pressure;Samples;Min_cycle;Max_cycle;Signal;HPM_P1;HPM_P2
2023/04/22 00:01:26;;;;;;;;;;;18.80;50.70;;;;;;5074089;28;19928;-74
2023/04/22 00:03:51;;;;;;;;;;;18.70;50.60;;;;;;5075454;28;20018;-74
2023/04/22 00:06:17;;;;;;;;;;;18.70;50.70;;;;;;5073951;28;19975;-75
2023/04/22 00:08:42;;;;;;;;;;;18.70;50.70;;;;;;5073951;28;19943;-74
2023/04/22 00:11:08;;;;;;;;;;;18.70;50.70;;;;;;5074004;28;20038;-74
2023/04/22 00:13:34;;;;;;;;;;;18.70;50.70;;;;;;5074034;28;19924;-74
2023/04/22 00:15:59;;;;;;;;;;;18.70;50.70;;;;;;5073963;28;19967;-74
2023/04/22 00:18:25;;;;;;;;;;;18.60;50.60;;;;;;5073905;28;19974;-74
2023/04/22 00:20:50;;;;;;;;;;;18.60;50.70;;;;;;5073643;28;20379;-75
2023/04/22 00:23:16;;;;;;;;;;;18.70;50.70;;;;;;5073569;28;19920;-74
2023/04/22 00:25:41;;;;;;;;;;;18.60;50.70;;;;;;5073853;28;19946;-74
2023/04/22 00:28:07;;;;;;;;;;;18.60;50.70;;;;;;5073415;28;20387;-74
2023/04/22 00:30:33;;;;;;;;;;;18.60;50.70;;;;;;5073800;28;19985;-74
2023/04/22 00:32:59;;;;;;;;;;;18.60;50.70;;;;;;5074485;28;19925;-74
2023/04/22 00:35:24;;;;;;;;;;;18.60;50.70;;;;;;5073669;28;19921;-74
2023/04/22 00:37:50;;;;;;;;;;;18.60;51.20;;;;;;5074691;28;20426;-74
2023/04/22 00:40:15;;;;;;;;;;;18.50;50.80;;;;;;5073321;28;20007;-74
2023/04/22 00:42:42;;;;;;;;;;;18.50;50.80;;;;;;5073475;28;20032;-74
2023/04/22 00:45:09;;;;;;;;;;;18.50;50.80;;;;;;5073253;28;20364;-74
2023/04/22 00:47:35;;;;;;;;;;;18.50;50.80;;;;;;5073058;28;19921;-74
2023/04/22 00:50:01;;;;;;;;;;;18.50;50.80;;;;;;5073361;28;19973;-74
2023/04/22 00:52:26;;;;;;;;;;;18.50;50.80;;;;;;5074110;28;19950;-74
2023/04/22 00:54:52;;;;;;;;;;;18.50;50.80;;;;;;5072941;28;20054;-74
2023/04/22 00:57:17;;;;;;;;;;;18.40;50.80;;;;;;5072929;28;19924;-74
2023/04/22 00:59:43;;;;;;;;;;;18.40;50.80;;;;;;5073135;28;19943;-75
2023/04/22 01:02:08;;;;;;;;;;;18.50;50.90;;;;;;5074114;28;19927;-74
2023/04/22 01:04:34;;;;;;;;;;;18.40;50.90;;;;;;5073975;28;20295;-74
2023/04/22 01:07:00;;;;;;;;;;;18.40;50.90;;;;;;5072799;28;19920;-75
2023/04/22 01:09:26;;;;;;;;;;;18.40;50.90;;;;;;5072653;28;19921;-75
2023/04/22 01:11:51;;;;;;;;;;;18.40;50.90;;;;;;5072777;28;19930;-75
2023/04/22 01:14:17;;;;;;;;;;;18.40;50.90;;;;;;5072539;28;19921;-75
2023/04/22 01:16:43;;;;;;;;;;;18.40;51.00;;;;;;5072550;28;19924;-75
2023/04/22 01:19:09;;;;;;;;;;;18.40;51.00;;;;;;5072704;28;19925;-76
2023/04/22 01:21:36;;;;;;;;;;;18.40;51.00;;;;;;5073781;28;20360;-75
2023/04/22 01:24:02;;;;;;;;;;;18.30;51.00;;;;;;5073836;28;19927;-75
2023/04/22 01:26:27;;;;;;;;;;;18.40;51.10;;;;;;5072636;28;19925;-75
2023/04/22 01:28:53;;;;;;;;;;;18.30;51.70;;;;;;5072302;28;19920;-75
2023/04/22 01:31:18;;;;;;;;;;;18.30;51.00;;;;;;5073399;28;19932;-75
2023/04/22 01:33:44;;;;;;;;;;;18.30;51.00;;;;;;5072151;28;20141;-75
2023/04/22 01:36:10;;;;;;;;;;;18.30;51.00;;;;;;5073308;28;20022;-75
2023/04/22 01:38:36;;;;;;;;;;;18.30;51.00;;;;;;5072507;28;19928;-75
2023/04/22 01:41:01;;;;;;;;;;;18.30;51.00;;;;;;5071999;28;19920;-75
2023/04/22 01:43:29;;;;;;;;;;;18.30;51.00;;;;;;5072279;28;19924;-75
2023/04/22 01:45:55;;;;;;;;;;;18.20;50.90;;;;;;5071910;28;20411;-75
2023/04/22 01:48:20;;;;;;;;;;;18.20;51.70;;;;;;5072096;28;19925;-75
2023/04/22 01:50:46;;;;;;;;;;;18.20;51.00;;;;;;5071532;28;20403;-75
2023/04/22 01:53:11;;;;;;;;;;;18.20;50.90;;;;;;5073010;28;20015;-75
2023/04/22 01:55:38;;;;;;;;;;;18.20;50.90;;;;;;5071917;28;19924;-74
2023/04/22 01:58:04;;;;;;;;;;;18.20;50.90;;;;;;5071986;28;19928;-75
2023/04/22 02:00:30;;;;;;;;;;;18.20;50.90;;;;;;5071889;28;19974;-75
2023/04/22 02:02:55;;;;;;;;;;;18.20;50.90;;;;;;5071700;28;20103;-75
2023/04/22 02:05:21;;;;;;;;;;;18.20;50.80;;;;;;5072786;28;20027;-75
2023/04/22 02:07:50;;;;;;;;;;;18.20;50.80;;;;;;5071502;28;20368;-75
2023/04/22 02:10:15;;;;;;;;;;;18.20;50.80;;;;;;5071824;28;19920;-75
2023/04/22 02:12:41;;;;;;;;;;;18.20;50.80;;;;;;5071278;28;20462;-75
2023/04/22 02:15:06;;;;;;;;;;;18.20;50.80;;;;;;5071760;28;19924;-76
2023/04/22 02:17:33;;;;;;;;;;;18.20;50.70;;;;;;5071423;28;19925;-75
2023/04/22 02:19:58;;;;;;;;;;;18.20;50.70;;;;;;5071591;28;19921;-76
2023/04/22 02:22:24;;;;;;;;;;;18.10;50.70;;;;;;5072375;28;19921;-75
2023/04/22 02:24:49;;;;;;;;;;;18.20;50.70;;;;;;5072768;28;19920;-75
2023/04/22 02:27:15;;;;;;;;;;;18.10;50.70;;;;;;5071185;28;20007;-75
2023/04/22 02:29:41;;;;;;;;;;;18.10;50.70;;;;;;5071361;28;19985;-75
2023/04/22 02:32:06;;;;;;;;;;;18.10;50.70;;;;;;5071097;28;19925;-75
2023/04/22 02:34:32;;;;;;;;;;;18.10;50.60;;;;;;5071215;28;19927;-75
2023/04/22 02:36:57;;;;;;;;;;;18.10;50.60;;;;;;5072293;28;19947;-75
2023/04/22 02:39:24;;;;;;;;;;;18.10;50.60;;;;;;5072657;28;19921;-75
2023/04/22 02:41:49;;;;;;;;;;;18.10;50.60;;;;;;5071331;28;20034;-74
2023/04/22 02:44:15;;;;;;;;;;;18.10;50.60;;;;;;5071093;28;20468;-75
2023/04/22 02:46:40;;;;;;;;;;;18.10;50.70;;;;;;5071519;28;19924;-75
2023/04/22 02:49:06;;;;;;;;;;;18.00;50.70;;;;;;5070955;28;20011;-75
2023/04/22 02:51:31;;;;;;;;;;;18.00;50.70;;;;;;5072149;28;19986;-74
2023/04/22 02:53:57;;;;;;;;;;;18.00;50.70;;;;;;5070923;28;19921;-75
2023/04/22 02:56:22;;;;;;;;;;;18.00;50.80;;;;;;5071455;28;19966;-74
2023/04/22 02:58:48;;;;;;;;;;;18.00;50.90;;;;;;5071170;28;20019;-75
2023/04/22 03:01:13;;;;;;;;;;;17.90;50.80;;;;;;5071384;28;19926;-75
2023/04/22 03:03:39;;;;;;;;;;;17.90;50.90;;;;;;5070923;28;20362;-75
2023/04/22 03:06:04;;;;;;;;;;;17.90;50.90;;;;;;5070951;28;19920;-75
2023/04/22 03:08:30;;;;;;;;;;;17.90;50.90;;;;;;5072114;28;20251;-75
2023/04/22 03:10:55;;;;;;;;;;;17.90;51.00;;;;;;5072349;28;19920;-75
2023/04/22 03:13:21;;;;;;;;;;;17.90;51.00;;;;;;5070720;28;19964;-75
2023/04/22 03:15:46;;;;;;;;;;;17.90;51.00;;;;;;5071118;28;19973;-75
2023/04/22 03:18:12;;;;;;;;;;;17.80;50.90;;;;;;5071037;28;19920;-76
2023/04/22 03:20:37;;;;;;;;;;;17.90;51.00;;;;;;5072179;28;19967;-76
2023/04/22 03:23:03;;;;;;;;;;;17.80;50.90;;;;;;5070553;28;19920;-75
2023/04/22 03:25:28;;;;;;;;;;;17.80;51.00;;;;;;5071946;28;20288;-75
2023/04/22 03:27:54;;;;;;;;;;;17.70;50.90;;;;;;5070715;28;20284;-75
2023/04/22 03:30:20;;;;;;;;;;;17.80;50.90;;;;;;5070908;28;19920;-75
2023/04/22 03:32:45;;;;;;;;;;;17.80;51.00;;;;;;5070571;28;19924;-75
2023/04/22 03:35:11;;;;;;;;;;;17.70;50.90;;;;;;5073472;28;19920;-75
2023/04/22 03:37:36;;;;;;;;;;;17.70;50.90;;;;;;5075685;28;19924;-75
2023/04/22 03:40:04;;;;;;;;;;;17.80;50.90;;;;;;5074391;28;19920;-75
2023/04/22 03:42:30;;;;;;;;;;;17.70;50.90;;;;;;5074738;28;19920;-75
2023/04/22 03:44:55;;;;;;;;;;;17.70;50.90;;;;;;5074618;28;20015;-75
2023/04/22 03:47:21;;;;;;;;;;;17.70;50.90;;;;;;5075601;28;19946;-75
2023/04/22 03:49:46;;;;;;;;;;;17.70;50.90;;;;;;5074682;28;20348;-75
2023/04/22 03:52:12;;;;;;;;;;;17.70;50.90;;;;;;5073963;28;19924;-75
2023/04/22 03:54:37;;;;;;;;;;;17.70;50.80;;;;;;5075220;28;19924;-74
2023/04/22 03:57:03;;;;;;;;;;;17.60;50.80;;;;;;5074396;28;20422;-74
2023/04/22 03:59:28;;;;;;;;;;;17.60;50.80;;;;;;5075171;28;20422;-75
2023/04/22 04:01:54;;;;;;;;;;;17.70;50.80;;;;;;5075419;28;19920;-75
2023/04/22 04:04:19;;;;;;;;;;;17.60;50.80;;;;;;5073920;28;19921;-75
2023/04/22 04:06:45;;;;;;;;;;;17.60;50.70;;;;;;5075160;28;19921;-75
2023/04/22 04:09:11;;;;;;;;;;;17.60;50.80;;;;;;5074130;28;20295;-75
2023/04/22 04:11:36;;;;;;;;;;;17.60;50.70;;;;;;5073717;28;20315;-75
2023/04/22 04:14:02;;;;;;;;;;;17.60;50.70;;;;;;5075058;28;19985;-75
2023/04/22 04:16:28;;;;;;;;;;;17.60;50.70;;;;;;5073862;28;19938;-75
2023/04/22 04:18:53;;;;;;;;;;;17.60;50.80;;;;;;5075100;28;19920;-76
2023/04/22 04:21:19;;;;;;;;;;;17.60;50.80;;;;;;5073628;28;19920;-76
2023/04/22 04:23:45;;;;;;;;;;;17.60;50.80;;;;;;5073844;28;19927;-75
2023/04/22 04:26:11;;;;;;;;;;;17.60;50.90;;;;;;5074695;28;20299;-75
2023/04/22 04:28:36;;;;;;;;;;;17.60;50.90;;;;;;5073858;28;20027;-75
2023/04/22 04:31:01;;;;;;;;;;;17.50;50.80;;;;;;5073569;28;19983;-75
2023/04/22 04:33:30;;;;;;;;;;;17.50;50.90;;;;;;5073464;28;19934;-75
2023/04/22 04:35:57;;;;;;;;;;;17.50;50.90;;;;;;5073317;28;19920;-75
2023/04/22 04:38:23;;;;;;;;;;;17.50;51.00;;;;;;5073386;28;19921;-75
2023/04/22 04:40:50;;;;;;;;;;;17.50;51.00;;;;;;5073534;28;19928;-73
2023/04/22 04:43:15;;;;;;;;;;;17.50;51.00;;;;;;5073281;28;19920;-74
2023/04/22 04:45:45;;;;;;;;;;;17.50;51.00;;;;;;5072890;28;19963;-75
2023/04/22 04:48:14;;;;;;;;;;;17.40;51.00;;;;;;5073082;28;19920;-75
2023/04/22 04:50:41;;;;;;;;;;;17.40;51.00;;;;;;5074294;28;19921;-75
2023/04/22 04:53:07;;;;;;;;;;;17.50;51.10;;;;;;5072967;28;19925;-74
2023/04/22 04:55:32;;;;;;;;;;;17.40;51.00;;;;;;5073283;28;19920;-74
2023/04/22 04:57:58;;;;;;;;;;;17.50;51.10;;;;;;5074429;28;19925;-75
2023/04/22 05:00:23;;;;;;;;;;;17.40;51.00;;;;;;5072851;28;19960;-75
2023/04/22 05:02:49;;;;;;;;;;;17.50;51.10;;;;;;5073142;28;19921;-76
2023/04/22 05:05:14;;;;;;;;;;;17.40;51.10;;;;;;5072867;28;19921;-75
2023/04/22 05:07:40;;;;;;;;;;;17.40;51.10;;;;;;5074062;28;19931;-75
2023/04/22 05:10:05;;;;;;;;;;;17.40;51.10;;;;;;5073017;28;19920;-76
2023/04/22 05:12:31;;;;;;;;;;;17.40;51.10;;;;;;5072663;28;20364;-75
2023/04/22 05:14:56;;;;;;;;;;;17.40;51.10;;;;;;5073003;28;20426;-76
2023/04/22 05:17:22;;;;;;;;;;;17.40;51.10;;;;;;5072549;28;19924;-76
2023/04/22 05:19:47;;;;;;;;;;;17.40;51.10;;;;;;5072561;28;19924;-76
2023/04/22 05:22:13;;;;;;;;;;;17.40;51.10;;;;;;5072431;28;19927;-76
2023/04/22 05:24:38;;;;;;;;;;;17.40;51.10;;;;;;5072741;28;19920;-76
2023/04/22 05:27:04;;;;;;;;;;;17.30;51.10;;;;;;5072284;28;20291;-76
2023/04/22 05:29:30;;;;;;;;;;;17.40;51.10;;;;;;5072337;28;19921;-75
2023/04/22 05:31:56;;;;;;;;;;;17.40;51.10;;;;;;5072440;28;19946;-76
2023/04/22 05:34:21;;;;;;;;;;;17.40;51.10;;;;;;5072481;28;20019;-75
2023/04/22 05:36:46;;;;;;;;;;;17.30;51.10;;;;;;5073515;28;20164;-75
2023/04/22 05:39:12;;;;;;;;;;;17.40;51.20;;;;;;5072097;28;19927;-75
2023/04/22 05:41:37;;;;;;;;;;;17.40;51.20;;;;;;5072036;28;19924;-74
2023/04/22 05:44:03;;;;;;;;;;;17.30;51.10;;;;;;5071968;28;19920;-75
2023/04/22 05:46:29;;;;;;;;;;;17.40;51.20;;;;;;5073278;28;19982;-75
2023/04/22 05:48:55;;;;;;;;;;;17.30;51.10;;;;;;5073141;28;20015;-74
2023/04/22 05:51:22;;;;;;;;;;;17.40;51.20;;;;;;5071789;28;20304;-76
2023/04/22 05:53:48;;;;;;;;;;;17.40;51.20;;;;;;5073093;28;19935;-75
2023/04/22 05:56:13;;;;;;;;;;;17.40;51.20;;;;;;5071505;28;19920;-76
2023/04/22 05:58:39;;;;;;;;;;;17.40;51.20;;;;;;5071799;28;19964;-76
2023/04/22 06:01:04;;;;;;;;;;;17.40;51.20;;;;;;5071683;28;20002;-76
2023/04/22 06:03:30;;;;;;;;;;;17.40;51.30;;;;;;5071992;28;20335;-76
2023/04/22 06:05:56;;;;;;;;;;;17.30;51.20;;;;;;5071957;28;19921;-75
2023/04/22 06:08:21;;;;;;;;;;;17.30;51.30;;;;;;5071835;28;20371;-76
2023/04/22 06:10:47;;;;;;;;;;;17.40;51.30;;;;;;5071826;28;20272;-75
2023/04/22 06:13:12;;;;;;;;;;;17.30;51.20;;;;;;5072645;28;19928;-76
2023/04/22 06:15:38;;;;;;;;;;;17.40;51.30;;;;;;5071616;28;19995;-76
2023/04/22 06:18:03;;;;;;;;;;;17.30;51.20;;;;;;5071741;28;19946;-76
2023/04/22 06:20:31;;;;;;;;;;;17.40;51.30;;;;;;5071412;28;19921;-77
2023/04/22 06:22:57;;;;;;;;;;;17.40;51.30;;;;;;5071446;28;19924;-76
2023/04/22 06:25:23;;;;;;;;;;;17.30;51.30;;;;;;5071637;28;19920;-76
2023/04/22 06:27:49;;;;;;;;;;;17.30;51.30;;;;;;5071245;28;20279;-76
2023/04/22 06:30:14;;;;;;;;;;;17.40;51.30;;;;;;5071604;28;20318;-76
2023/04/22 06:32:40;;;;;;;;;;;17.40;51.30;;;;;;5072516;28;19932;-76
2023/04/22 06:35:05;;;;;;;;;;;17.30;51.20;;;;;;5071553;28;19924;-74
2023/04/22 06:37:31;;;;;;;;;;;17.30;51.20;;;;;;5071345;28;19920;-75
2023/04/22 06:39:56;;;;;;;;;;;17.40;51.30;;;;;;5072481;28;19934;-75
2023/04/22 06:42:22;;;;;;;;;;;17.40;51.30;;;;;;5072716;28;19928;-75
2023/04/22 06:44:47;;;;;;;;;;;17.40;51.30;;;;;;5071075;28;19928;-75
2023/04/22 06:47:13;;;;;;;;;;;17.40;51.30;;;;;;5072647;28;19921;-76
2023/04/22 06:49:38;;;;;;;;;;;17.40;51.30;;;;;;5071081;28;19947;-76
2023/04/22 06:52:05;;;;;;;;;;;17.40;51.30;;;;;;5070800;28;19930;-75
2023/04/22 06:54:30;;;;;;;;;;;17.40;51.30;;;;;;5071038;28;19921;-75
2023/04/22 06:56:56;;;;;;;;;;;17.40;51.30;;;;;;5071311;28;19921;-76
2023/04/22 06:59:22;;;;;;;;;;;17.30;52.00;;;;;;5071122;28;19924;-76
2023/04/22 07:01:47;;;;;;;;;;;17.30;51.30;;;;;;5072428;28;19921;-76
2023/04/22 07:04:13;;;;;;;;;;;17.40;51.40;;;;;;5070978;28;19921;-75
2023/04/22 07:06:38;;;;;;;;;;;17.40;51.40;;;;;;5072295;28;19921;-76
2023/04/22 07:09:04;;;;;;;;;;;17.30;51.30;;;;;;5073906;28;19968;-76
2023/04/22 07:11:30;;;;;;;;;;;17.40;51.40;;;;;;5074834;28;19927;-76
2023/04/22 07:13:56;;;;;;;;;;;17.30;51.30;;;;;;5075230;28;19965;-76
2023/04/22 07:16:21;;;;;;;;;;;17.40;51.40;;;;;;5076102;28;20447;-75
2023/04/22 07:18:47;;;;;;;;;;;17.40;51.40;;;;;;5076172;28;20380;-77
2023/04/22 07:21:13;;;;;;;;;;;17.40;51.40;;;;;;5075027;28;19920;-76
2023/04/22 07:23:38;;;;;;;;;;;17.40;51.40;;;;;;5076145;28;19966;-75
2023/04/22 07:26:04;;;;;;;;;;;17.40;51.40;;;;;;5074765;28;20407;-76
2023/04/22 07:28:30;;;;;;;;;;;17.40;51.40;;;;;;5074678;28;19924;-75
2023/04/22 07:30:55;;;;;;;;;;;17.40;51.30;;;;;;5075870;28;20023;-76
2023/04/22 07:33:21;;;;;;;;;;;17.40;51.30;;;;;;5074421;28;19925;-76
2023/04/22 07:35:46;;;;;;;;;;;17.40;51.40;;;;;;5074809;28;19951;-76
2023/04/22 07:38:12;;;;;;;;;;;17.40;51.40;;;;;;5074423;28;19920;-75
2023/04/22 07:40:37;;;;;;;;;;;17.40;51.40;;;;;;5074422;28;19924;-75
2023/04/22 07:43:04;;;;;;;;;;;17.40;51.40;;;;;;5074672;28;20334;-75
2023/04/22 07:45:31;;;;;;;;;;;17.40;51.40;;;;;;5075534;28;19999;-75
2023/04/22 07:47:57;;;;;;;;;;;17.40;51.40;;;;;;5074670;28;19924;-76
2023/04/22 07:50:22;;;;;;;;;;;17.40;51.40;;;;;;5074271;28;19973;-75
2023/04/22 07:52:47;;;;;;;;;;;17.50;51.40;;;;;;5073898;28;20024;-77
2023/04/22 07:55:13;;;;;;;;;;;17.50;51.40;;;;;;5074136;28;19967;-75
2023/04/22 07:57:38;;;;;;;;;;;17.40;51.40;;;;;;5074110;28;19920;-75
2023/04/22 08:00:05;;;;;;;;;;;17.40;51.30;;;;;;5075312;28;19921;-74
2023/04/22 08:02:30;;;;;;;;;;;17.50;51.40;;;;;;5074021;28;20010;-76
2023/04/22 08:04:56;;;;;;;;;;;17.50;51.30;;;;;;5075261;28;19991;-76
2023/04/22 08:07:21;;;;;;;;;;;17.50;51.30;;;;;;5074012;28;19924;-76
2023/04/22 08:09:47;;;;;;;;;;;17.50;51.20;;;;;;5074267;28;19980;-74
2023/04/22 08:12:13;;;;;;;;;;;17.50;51.20;;;;;;5075105;28;20311;-76
2023/04/22 08:14:38;;;;;;;;;;;17.60;51.20;;;;;;5074035;28;19927;-76
2023/04/22 08:17:04;;;;;;;;;;;17.60;51.20;;;;;;5073762;28;20353;-75
2023/04/22 08:19:29;;;;;;;;;;;17.60;51.20;;;;;;5073253;28;19927;-77
2023/04/22 08:21:56;;;;;;;;;;;17.60;51.20;;;;;;5073698;28;19920;-76
2023/04/22 08:24:22;;;;;;;;;;;17.60;51.20;;;;;;5073557;28;19964;-75
2023/04/22 08:26:47;;;;;;;;;;;17.60;51.20;;;;;;5073661;28;19982;-76
2023/04/22 08:29:13;;;;;;;;;;;17.60;51.20;;;;;;5073800;28;19989;-77
2023/04/22 08:31:38;;;;;;;;;;;17.60;51.20;;;;;;5073458;28;19994;-76
2023/04/22 08:34:04;;;;;;;;;;;17.60;51.30;;;;;;5073681;28;19927;-75
2023/04/22 08:36:30;;;;;;;;;;;17.70;51.30;;;;;;5073663;28;19921;-76
2023/04/22 08:38:56;;;;;;;;;;;17.70;51.30;;;;;;5074710;28;20354;-76
2023/04/22 08:41:23;;;;;;;;;;;17.70;51.20;;;;;;5073344;28;20015;-76
2023/04/22 08:43:49;;;;;;;;;;;17.70;51.20;;;;;;5073471;28;19927;-75
2023/04/22 08:46:16;;;;;;;;;;;17.70;51.30;;;;;;5074546;28;19920;-75
2023/04/22 08:48:41;;;;;;;;;;;17.70;51.30;;;;;;5073080;28;20007;-75
2023/04/22 08:51:07;;;;;;;;;;;17.70;51.30;;;;;;5073102;28;20020;-76
2023/04/22 08:53:32;;;;;;;;;;;17.70;51.40;;;;;;5073022;28;19947;-75
2023/04/22 08:55:58;;;;;;;;;;;17.70;51.30;;;;;;5074240;28;19920;-75
2023/04/22 08:58:24;;;;;;;;;;;17.70;51.20;;;;;;5073125;28;19920;-73
2023/04/22 09:00:49;;;;;;;;;;;17.70;51.20;;;;;;5074155;28;19920;-76
2023/04/22 09:03:15;;;;;;;;;;;17.70;51.00;;;;;;5072836;28;19927;-76
2023/04/22 09:05:44;;;;;;;;;;;17.70;51.00;;;;;;5072829;28;20433;-75
2023/04/22 09:08:10;;;;;;;;;;;17.70;50.90;;;;;;5072816;28;19928;-75
2023/04/22 09:10:37;;;;;;;;;;;17.70;50.90;;;;;;5073938;28;19921;-74
2023/04/22 09:13:04;;;;;;;;;;;17.80;51.10;;;;;;5072611;28;19925;-75
2023/04/22 09:15:29;;;;;;;;;;;17.80;51.10;;;;;;5072578;28;19920;-73
2023/04/22 09:17:57;;;;;;;;;;;17.80;51.00;;;;;;5072543;28;20012;-75
2023/04/22 09:20:26;;;;;;;;;;;17.80;51.10;;;;;;5073810;28;20376;-76
2023/04/22 09:22:53;;;;;;;;;;;17.80;51.00;;;;;;5072997;28;19920;-74
2023/04/22 09:27:59;;;;;;;;;;;17.80;51.00;;;;;;5109309;27;19915;-76
2023/04/22 09:30:27;;;;;;;;;;;17.80;51.80;;;;;;5108882;28;20299;-74
2023/04/22 09:32:53;;;;;;;;;;;17.90;52.20;;;;;;5101635;28;20383;-74
2023/04/22 09:35:24;;;;;;;;;;;17.90;52.50;;;;;;5089716;28;20368;-75
2023/04/22 09:37:50;;;;;;;;;;;18.00;52.80;;;;;;5108387;28;19927;-75
2023/04/22 09:40:17;;;;;;;;;;;18.10;53.00;;;;;;5109138;28;20004;-74
2023/04/22 09:42:50;;;;;;;;;;;18.10;53.20;;;;;;5105099;28;20011;-71
2023/04/22 09:45:35;;;;;;;;;;;18.20;53.20;;;;;;5108592;28;20006;-76
2023/04/22 09:48:05;;;;;;;;;;;18.20;53.30;;;;;;5102797;28;20399;-69
2023/04/22 09:50:31;;;;;;;;;;;18.30;53.20;;;;;;5098237;28;19932;-72
2023/04/22 09:53:01;;;;;;;;;;;18.30;53.20;;;;;;5099251;28;19921;-69
2023/04/22 09:55:28;;;;;;;;;;;18.30;53.40;;;;;;5096921;28;20049;-69
2023/04/22 09:57:54;;;;;;;;;;;18.40;53.40;;;;;;5091618;28;19965;-68
2023/04/22 10:00:21;;;;;;;;;;;18.40;53.50;;;;;;5099657;28;19920;-71
2023/04/22 10:02:46;;;;;;;;;;;18.40;53.40;;;;;;5092138;28;19928;-73
2023/04/22 10:05:12;;;;;;;;;;;18.50;53.60;;;;;;5090919;28;19920;-73
2023/04/22 10:07:38;;;;;;;;;;;18.50;53.10;;;;;;5088420;28;19925;-74
2023/04/22 10:10:07;;;;;;;;;;;18.50;53.40;;;;;;5087870;28;19943;-71
2023/04/22 10:12:33;;;;;;;;;;;18.50;54.20;;;;;;5098584;28;19927;-70
2023/04/22 10:14:59;;;;;;;;;;;18.50;53.50;;;;;;5093680;28;19931;-69
2023/04/22 10:17:24;;;;;;;;;;;18.60;54.30;;;;;;5094884;28;20338;-73
2023/04/22 10:19:51;;;;;;;;;;;18.60;53.50;;;;;;5088806;28;20019;-73
2023/04/22 10:22:16;;;;;;;;;;;18.60;53.60;;;;;;5090353;28;19921;-69
2023/04/22 10:24:43;;;;;;;;;;;18.60;53.60;;;;;;5095253;28;20354;-72
2023/04/22 10:27:09;;;;;;;;;;;18.60;53.40;;;;;;5087378;28;19925;-75
2023/04/22 10:29:37;;;;;;;;;;;18.70;53.70;;;;;;5101901;28;20382;-77
2023/04/22 10:32:04;;;;;;;;;;;18.70;53.30;;;;;;5096396;28;19951;-71
2023/04/22 10:34:31;;;;;;;;;;;18.70;53.10;;;;;;5100057;28;19924;-67
2023/04/22 10:37:03;;;;;;;;;;;18.70;53.00;;;;;;5087206;28;19927;-78
2023/04/22 10:39:29;;;;;;;;;;;18.70;53.10;;;;;;5077803;28;20383;-79
2023/04/22 10:42:04;;;;;;;;;;;18.60;53.30;;;;;;5076814;28;19920;-75
2023/04/22 10:44:43;;;;;;;;;;;18.70;53.30;;;;;;5080196;28;20057;-76
2023/04/22 10:47:09;;;;;;;;;;;18.70;53.20;;;;;;5090797;28;19932;-73
2023/04/22 10:49:35;;;;;;;;;;;18.70;53.30;;;;;;5090636;28;19920;-72
2023/04/22 10:52:02;;;;;;;;;;;18.70;53.40;;;;;;5094315;28;20016;-72
2023/04/22 11:02:32;;;;;;;;;;;18.60;53.50;;;;;;5089919;28;20283;-72
2023/04/22 11:05:17;;;;;;;;;;;18.60;53.50;;;;;;5088810;28;20341;-72
2023/04/22 11:07:43;;;;;;;;;;;18.50;53.70;;;;;;5088656;28;19993;-72
2023/04/22 11:10:14;;;;;;;;;;;18.50;53.70;;;;;;5088652;28;19921;-72
2023/04/22 11:15:21;;;;;;;;;;;18.50;53.80;;;;;;5089882;28;20360;-72
2023/04/22 11:17:50;;;;;;;;;;;18.50;53.70;;;;;;5088571;28;19928;-73
2023/04/22 11:20:16;;;;;;;;;;;18.40;53.70;;;;;;5088486;28;19920;-72
2023/04/22 11:22:43;;;;;;;;;;;18.40;53.70;;;;;;5088497;28;20011;-72
2023/04/22 11:25:09;;;;;;;;;;;18.40;53.80;;;;;;5088396;28;20428;-73
2023/04/22 11:27:35;;;;;;;;;;;18.40;53.90;;;;;;5088455;28;19920;-72
2023/04/22 11:30:01;;;;;;;;;;;18.40;54.00;;;;;;5105636;28;19943;-72
2023/04/22 11:32:27;;;;;;;;;;;18.40;53.90;;;;;;5088341;28;19921;-73
2023/04/22 11:34:53;;;;;;;;;;;18.30;53.80;;;;;;5088139;28;20279;-73
2023/04/22 11:37:18;;;;;;;;;;;18.30;53.80;;;;;;5088494;28;19927;-72
2023/04/22 11:39:44;;;;;;;;;;;18.30;53.90;;;;;;5088442;28;20007;-72
2023/04/22 11:42:12;;;;;;;;;;;18.30;53.90;;;;;;5089563;28;19924;-72
2023/04/22 11:44:38;;;;;;;;;;;18.30;53.80;;;;;;5088335;28;20322;-72
2023/04/22 11:47:03;;;;;;;;;;;18.30;54.00;;;;;;5088037;28;19920;-72
2023/04/22 11:49:31;;;;;;;;;;;18.30;53.80;;;;;;5088387;28;19978;-72
2023/04/22 11:51:57;;;;;;;;;;;18.30;53.80;;;;;;5089386;28;19920;-72
2023/04/22 11:54:38;;;;;;;;;;;18.30;53.90;;;;;;5087912;28;20018;-72
2023/04/22 11:57:07;;;;;;;;;;;18.30;53.90;;;;;;5088150;28;20390;-71
2023/04/22 11:59:33;;;;;;;;;;;18.30;53.90;;;;;;5088062;28;19924;-72
2023/04/22 12:01:58;;;;;;;;;;;18.30;53.80;;;;;;5087663;28;20019;-72
2023/04/22 12:04:24;;;;;;;;;;;18.20;53.80;;;;;;5087833;28;19921;-71
2023/04/22 12:06:50;;;;;;;;;;;18.30;53.90;;;;;;5104997;28;19921;-72
2023/04/22 12:09:16;;;;;;;;;;;18.30;54.00;;;;;;5087237;28;19920;-71
2023/04/22 12:11:43;;;;;;;;;;;18.20;53.80;;;;;;5086357;28;19924;-71
2023/04/22 12:14:10;;;;;;;;;;;18.20;54.10;;;;;;5085408;28;20011;-73
2023/04/22 12:16:42;;;;;;;;;;;18.30;54.00;;;;;;5085229;28;20569;-71
2023/04/22 12:19:08;;;;;;;;;;;18.20;53.80;;;;;;5087457;28;20360;-73
2023/04/22 12:21:34;;;;;;;;;;;18.30;53.80;;;;;;5087622;28;19927;-71
2023/04/22 12:24:03;;;;;;;;;;;18.30;53.80;;;;;;5087855;28;19920;-71
2023/04/22 12:26:29;;;;;;;;;;;18.20;53.90;;;;;;5074766;28;19926;-71
2023/04/22 12:28:56;;;;;;;;;;;18.30;53.90;;;;;;5073904;28;20279;-71
2023/04/22 12:31:22;;;;;;;;;;;18.30;54.00;;;;;;5057313;28;19950;-71
2023/04/22 12:33:48;;;;;;;;;;;18.30;53.90;;;;;;5073763;28;20353;-71
2023/04/22 12:36:14;;;;;;;;;;;18.30;54.00;;;;;;5073504;28;19943;-71
2023/04/22 12:38:40;;;;;;;;;;;18.30;54.10;;;;;;5073677;28;19927;-71
2023/04/22 12:41:06;;;;;;;;;;;18.20;53.80;;;;;;5073869;28;20007;-70
2023/04/22 12:43:35;;;;;;;;;;;18.30;53.90;;;;;;5073511;28;20012;-70
2023/04/22 12:46:01;;;;;;;;;;;18.30;54.10;;;;;;5073535;28;20409;-71
2023/04/22 12:48:26;;;;;;;;;;;18.30;54.10;;;;;;5073402;28;19927;-72
2023/04/22 12:50:52;;;;;;;;;;;18.30;54.00;;;;;;5073702;28;19924;-70
2023/04/22 12:53:17;;;;;;;;;;;18.30;54.10;;;;;;5073243;28;19931;-71
2023/04/22 12:55:42;;;;;;;;;;;18.30;54.10;;;;;;5073575;28;19975;-70
2023/04/22 12:58:08;;;;;;;;;;;18.30;53.90;;;;;;5074465;28;19921;-70
2023/04/22 13:00:34;;;;;;;;;;;18.30;53.90;;;;;;5073088;28;19920;-70
2023/04/22 13:02:59;;;;;;;;;;;18.30;54.10;;;;;;5074399;28;19950;-71
2023/04/22 13:05:25;;;;;;;;;;;18.30;54.00;;;;;;5073447;28;19920;-72
2023/04/22 13:07:51;;;;;;;;;;;18.30;54.00;;;;;;5074430;28;20402;-70
2023/04/22 13:10:17;;;;;;;;;;;18.20;54.10;;;;;;5073089;28;19947;-70
2023/04/22 13:12:42;;;;;;;;;;;18.30;54.10;;;;;;5073162;28;19924;-71
2023/04/22 13:15:09;;;;;;;;;;;18.30;54.00;;;;;;5092812;28;20367;-71
2023/04/22 13:17:35;;;;;;;;;;;18.30;54.00;;;;;;5076487;28;20006;-73
2023/04/22 13:20:01;;;;;;;;;;;18.30;54.20;;;;;;5076540;28;20348;-70
2023/04/22 13:22:27;;;;;;;;;;;18.30;54.10;;;;;;5076234;28;19927;-70
2023/04/22 13:24:52;;;;;;;;;;;18.30;54.20;;;;;;5076352;28;19986;-70
2023/04/22 13:27:18;;;;;;;;;;;18.30;54.10;;;;;;5076373;28;20252;-70
2023/04/22 13:29:43;;;;;;;;;;;18.20;54.10;;;;;;5076269;28;20327;-70
2023/04/22 13:32:09;;;;;;;;;;;18.30;54.10;;;;;;5075915;28;20387;-70
2023/04/22 13:34:35;;;;;;;;;;;18.30;53.90;;;;;;5075719;28;19932;-70
2023/04/22 13:37:00;;;;;;;;;;;18.20;53.90;;;;;;5075483;28;19920;-70
2023/04/22 13:39:26;;;;;;;;;;;18.30;54.00;;;;;;5075751;28;19935;-72
2023/04/22 13:41:52;;;;;;;;;;;18.30;54.10;;;;;;5076041;28;19924;-70
2023/04/22 13:44:17;;;;;;;;;;;18.30;54.10;;;;;;5075985;28;20014;-73
2023/04/22 13:46:43;;;;;;;;;;;18.30;54.10;;;;;;5075914;28;20283;-70
2023/04/22 13:49:08;;;;;;;;;;;18.30;54.10;;;;;;5093918;28;20371;-70
2023/04/22 13:51:36;;;;;;;;;;;18.30;54.00;;;;;;5075579;28;20038;-71
2023/04/22 13:54:02;;;;;;;;;;;18.30;54.00;;;;;;5093524;28;19931;-71
2023/04/22 13:56:28;;;;;;;;;;;18.30;54.10;;;;;;5075728;28;19920;-70
2023/04/22 13:58:53;;;;;;;;;;;18.30;54.10;;;;;;5075318;28;19920;-69
2023/04/22 14:01:19;;;;;;;;;;;18.30;53.90;;;;;;5075565;28;19920;-70
2023/04/22 14:03:45;;;;;;;;;;;18.30;54.10;;;;;;5093709;28;20019;-70
2023/04/22 14:06:11;;;;;;;;;;;18.30;54.00;;;;;;5093577;28;20287;-70
2023/04/22 14:08:36;;;;;;;;;;;18.20;54.10;;;;;;5075158;28;19929;-70
2023/04/22 14:11:02;;;;;;;;;;;18.30;54.00;;;;;;5093279;28;19931;-71
2023/04/22 14:13:29;;;;;;;;;;;18.20;53.90;;;;;;5074771;28;19924;-70
2023/04/22 14:15:54;;;;;;;;;;;18.30;53.90;;;;;;5075054;28;19961;-70
2023/04/22 14:18:22;;;;;;;;;;;18.30;53.90;;;;;;5093134;28;19967;-70
2023/04/22 14:20:47;;;;;;;;;;;18.30;54.10;;;;;;5075336;28;20010;-71
2023/04/22 14:23:13;;;;;;;;;;;18.30;53.90;;;;;;5093110;28;19975;-70